createdAt,value
2022-11-10T00:00:24.516Z,83.3
2022-11-10T00:01:40.803Z,83.4
2022-11-10T00:02:57.112Z,83.5
2022-11-10T00:04:13.369Z,83.6
2022-11-10T00:05:28.716Z,83.8
2022-11-10T00:06:44.995Z,84
2022-11-10T00:08:01.298Z,84.2
2022-11-10T00:09:17.580Z,84.3
2022-11-10T00:10:33.853Z,84.2
2022-11-10T00:11:50.178Z,84
2022-11-10T00:13:06.437Z,84
2022-11-10T00:14:22.732Z,84
2022-11-10T00:15:39.057Z,84
2022-11-10T00:16:55.322Z,84
2022-11-10T00:18:11.611Z,84
2022-11-10T00:19:27.925Z,84
2022-11-10T00:20:44.208Z,84
2022-11-10T00:21:59.533Z,84
2022-11-10T00:23:15.841Z,84.1
2022-11-10T00:24:32.103Z,83.9
2022-11-10T00:25:48.409Z,83.9
2022-11-10T00:27:04.708Z,83.9
2022-11-10T00:28:20.996Z,83.9
2022-11-10T00:29:37.288Z,83.8
2022-11-10T00:30:53.585Z,83.9
2022-11-10T00:32:09.853Z,83.8
2022-11-10T00:33:26.148Z,83.7
2022-11-10T00:34:42.476Z,83.8
2022-11-10T00:35:58.736Z,83.8
2022-11-10T00:37:15.053Z,83.8
2022-11-10T00:38:30.364Z,83.5
2022-11-10T00:39:46.654Z,83.4
2022-11-10T00:41:02.932Z,83.4
2022-11-10T00:42:19.224Z,83.4
2022-11-10T00:43:34.569Z,83.3
2022-11-10T00:44:50.836Z,83.4
2022-11-10T00:46:07.163Z,83.3
2022-11-10T00:47:23.439Z,83.5
2022-11-10T00:48:39.738Z,83.6
2022-11-10T00:49:56.029Z,83.6
2022-11-10T00:51:12.317Z,83.7
2022-11-10T00:52:28.595Z,83.8
2022-11-10T00:53:44.909Z,83.9
2022-11-10T00:55:01.204Z,83.9
2022-11-10T00:56:17.470Z,83.9
2022-11-10T00:57:33.786Z,84
2022-11-10T00:58:50.081Z,84
2022-11-10T01:00:05.388Z,83.9
2022-11-10T01:01:21.686Z,83.9
2022-11-10T01:02:37.978Z,83.8
2022-11-10T01:03:54.275Z,83.8
2022-11-10T01:05:10.575Z,83.8
2022-11-10T01:06:26.858Z,83.8
2022-11-10T01:07:43.149Z,83.7
2022-11-10T01:08:59.462Z,83.7
2022-11-10T01:10:15.713Z,83.7
2022-11-10T01:11:32.007Z,83.8
2022-11-10T01:12:48.332Z,83.7
2022-11-10T01:14:04.629Z,83.6
2022-11-10T01:15:20.914Z,83.6
2022-11-10T01:16:36.222Z,83.5
2022-11-10T01:17:52.512Z,83.5
2022-11-10T01:19:08.784Z,83.5
2022-11-10T01:20:25.083Z,83.7
2022-11-10T01:21:41.367Z,83.6
2022-11-10T01:22:57.689Z,83.7
2022-11-10T01:24:13.995Z,83.5
2022-11-10T01:25:30.276Z,83.6
2022-11-10T01:26:46.579Z,83.7
2022-11-10T01:28:02.873Z,83.7
2022-11-10T01:29:19.169Z,83.8
2022-11-10T01:30:35.452Z,83.9
2022-11-10T01:31:51.757Z,83.9
2022-11-10T01:33:07.026Z,84.1
2022-11-10T01:34:23.351Z,84.1
2022-11-10T01:35:39.649Z,84.2
2022-11-10T01:36:55.935Z,84.3
2022-11-10T01:38:12.225Z,84.5
2022-11-10T01:39:28.518Z,84.5
2022-11-10T01:40:44.814Z,84.5
2022-11-10T01:42:01.102Z,84.5
2022-11-10T01:43:17.379Z,84.5
2022-11-10T01:44:33.697Z,84.5
2022-11-10T01:45:49.986Z,84.5
2022-11-10T01:47:06.291Z,84.5
2022-11-10T01:48:22.552Z,84.5
2022-11-10T01:49:37.890Z,84.4
2022-11-10T01:50:54.173Z,84.2
2022-11-10T01:52:10.445Z,84.2
2022-11-10T01:53:26.762Z,84
2022-11-10T01:54:43.039Z,83.9
2022-11-10T01:55:59.326Z,83.9
2022-11-10T01:57:15.633Z,83.8
2022-11-10T01:58:31.937Z,83.8
2022-11-10T01:59:48.217Z,83.8
2022-11-10T02:01:04.515Z,83.7
2022-11-10T02:02:20.815Z,83.6
2022-11-10T02:03:37.108Z,83.6
2022-11-10T02:04:53.402Z,83.5
2022-11-10T02:06:08.712Z,83.6
2022-11-10T02:07:24.984Z,83.7
2022-11-10T02:08:41.282Z,83.5
2022-11-10T02:09:57.603Z,83.5
2022-11-10T02:11:13.886Z,83.5
2022-11-10T02:12:30.179Z,83.5
2022-11-10T02:13:46.491Z,83.3
2022-11-10T02:15:02.783Z,83.2
2022-11-10T02:16:19.058Z,83.2
2022-11-10T02:17:35.352Z,83.3
2022-11-10T02:18:51.645Z,83.3
2022-11-10T02:20:07.950Z,83.3
2022-11-10T02:21:24.206Z,83.3
2022-11-10T02:22:40.499Z,83.4
2022-11-10T02:23:55.839Z,83.5
2022-11-10T02:25:12.144Z,83.5
2022-11-10T02:26:28.427Z,83.6
2022-11-10T02:27:44.721Z,83.5
2022-11-10T02:29:01.019Z,83.5
2022-11-10T02:30:17.000Z,83.4
2022-11-10T02:31:33.603Z,83.4
2022-11-10T02:32:49.904Z,83.4
2022-11-10T02:34:06.158Z,83.4
2022-11-10T02:35:22.458Z,83.3
2022-11-10T02:36:38.772Z,83.3
2022-11-10T02:37:55.037Z,83.3
2022-11-10T02:39:11.367Z,83.3
2022-11-10T02:40:26.668Z,83.3
2022-11-10T02:41:42.971Z,83.2
2022-11-10T02:42:59.233Z,83.3
2022-11-10T02:44:15.549Z,83.2
2022-11-10T02:45:31.819Z,83.2
2022-11-10T02:46:48.144Z,83.2
2022-11-10T02:48:04.442Z,83.2
2022-11-10T02:49:20.720Z,83.1
2022-11-10T02:50:36.994Z,83.1
2022-11-10T02:51:53.314Z,83
2022-11-10T02:53:09.610Z,83
2022-11-10T02:54:25.894Z,83
2022-11-10T02:55:42.191Z,83
2022-11-10T02:56:57.514Z,82.9
2022-11-10T02:58:13.798Z,82.8
2022-11-10T02:59:30.099Z,82.8
2022-11-10T03:00:46.370Z,82.8
2022-11-10T03:02:02.674Z,82.8
2022-11-10T03:03:18.983Z,82.9
2022-11-10T03:04:35.263Z,83
2022-11-10T03:05:51.541Z,83.2
2022-11-10T03:07:07.847Z,83.2
2022-11-10T03:08:24.156Z,83.2
2022-11-10T03:09:40.442Z,83.1
2022-11-10T03:10:56.729Z,83
2022-11-10T03:12:13.003Z,83.1
2022-11-10T03:13:28.303Z,83
2022-11-10T03:14:44.604Z,83.1
2022-11-10T03:16:00.931Z,83.1
2022-11-10T03:17:17.228Z,83.1
2022-11-10T03:18:33.517Z,83.2
2022-11-10T03:19:49.798Z,83.3
2022-11-10T03:21:06.091Z,83.3
2022-11-10T03:22:22.382Z,83.3
2022-11-10T03:23:38.652Z,83.4
2022-11-10T03:24:54.969Z,83.4
2022-11-10T03:26:11.278Z,83.5
2022-11-10T03:27:27.557Z,83.5
2022-11-10T03:28:43.851Z,83.5
2022-11-10T03:29:59.140Z,83.6
2022-11-10T03:31:15.458Z,83.7
2022-11-10T03:32:31.756Z,83.8
2022-11-10T03:33:48.052Z,83.9
2022-11-10T03:35:04.346Z,84.1
2022-11-10T03:36:20.634Z,84.1
2022-11-10T03:37:36.922Z,84.1
2022-11-10T03:38:53.188Z,84.3
2022-11-10T03:40:09.520Z,84.3
2022-11-10T03:41:25.804Z,84.3
2022-11-10T03:42:42.100Z,84.4
2022-11-10T03:43:58.394Z,84.5
2022-11-10T03:45:14.696Z,84.4
2022-11-10T03:46:30.005Z,84.4
2022-11-10T03:47:46.260Z,84.3
2022-11-10T03:49:02.596Z,84.4
2022-11-10T03:50:18.882Z,84.3
2022-11-10T03:51:35.139Z,84.2
2022-11-10T03:52:51.468Z,84.2
2022-11-10T03:54:07.729Z,84.3
2022-11-10T03:55:24.046Z,84.4
2022-11-10T03:56:40.343Z,84.3
2022-11-10T03:57:56.631Z,84.2
2022-11-10T03:59:12.899Z,84.4
2022-11-10T04:00:29.196Z,84.5
2022-11-10T04:01:45.500Z,84.5
2022-11-10T04:03:00.808Z,84.5
2022-11-10T04:04:17.134Z,84.6
2022-11-10T04:05:33.384Z,84.6
2022-11-10T04:06:49.702Z,84.7
2022-11-10T04:08:05.997Z,84.8
2022-11-10T04:09:22.292Z,84.9
2022-11-10T04:10:38.563Z,85
2022-11-10T04:11:54.859Z,85
2022-11-10T04:13:11.160Z,85.1
2022-11-10T04:14:27.446Z,85.2
2022-11-10T04:15:43.741Z,85.2
2022-11-10T04:17:00.035Z,85.1
2022-11-10T04:18:16.322Z,85.1
2022-11-10T04:19:31.643Z,85.1
2022-11-10T04:20:47.933Z,85.1
2022-11-10T04:22:04.238Z,85.1
2022-11-10T04:23:20.531Z,85.1
2022-11-10T04:24:36.805Z,84.9
2022-11-10T04:25:53.000Z,85
2022-11-10T04:27:09.405Z,84.8
2022-11-10T04:28:25.690Z,84.9
2022-11-10T04:29:41.982Z,84.9
2022-11-10T04:30:58.274Z,84.8
2022-11-10T04:32:14.577Z,84.9
2022-11-10T04:33:30.878Z,84.8
2022-11-10T04:34:47.176Z,84.8
2022-11-10T04:36:02.470Z,84.8
2022-11-10T04:37:18.759Z,84.7
2022-11-10T04:38:35.063Z,84.7
2022-11-10T04:39:51.346Z,84.7
2022-11-10T04:41:07.656Z,84.6
2022-11-10T04:42:23.947Z,84.6
2022-11-10T04:43:40.234Z,84.6
2022-11-10T04:44:56.517Z,84.6
2022-11-10T04:46:12.821Z,84.5
2022-11-10T04:47:29.116Z,84.4
2022-11-10T04:48:45.403Z,84.5
2022-11-10T04:50:01.693Z,84.3
2022-11-10T04:51:17.990Z,84.3
2022-11-10T04:52:33.299Z,84.4
2022-11-10T04:53:49.602Z,84.4
2022-11-10T04:55:05.897Z,84.5
2022-11-10T04:56:22.179Z,84.5
2022-11-10T04:57:38.485Z,84.4
2022-11-10T04:58:53.792Z,84.5
2022-11-10T05:00:10.096Z,84.6
2022-11-10T05:01:26.377Z,84.6
2022-11-10T05:02:42.686Z,84.7
2022-11-10T05:03:58.978Z,84.6
2022-11-10T05:05:15.271Z,84.6
2022-11-10T05:06:31.547Z,84.7
2022-11-10T05:07:47.845Z,84.8
2022-11-10T05:09:04.141Z,85
2022-11-10T05:10:20.431Z,85
2022-11-10T05:11:36.738Z,85
2022-11-10T05:12:53.026Z,85
2022-11-10T05:14:09.318Z,85.1
2022-11-10T05:15:24.615Z,85.1
2022-11-10T05:16:40.907Z,85.1
2022-11-10T05:17:57.218Z,85
2022-11-10T05:19:13.509Z,85.1
2022-11-10T05:20:29.800Z,85.1
2022-11-10T05:21:46.098Z,85.1
2022-11-10T05:23:02.377Z,85.2
2022-11-10T05:24:18.687Z,85.3
2022-11-10T05:25:34.965Z,85.3
2022-11-10T05:26:51.274Z,85.2
2022-11-10T05:28:07.566Z,85.3
2022-11-10T05:29:23.860Z,85.3
2022-11-10T05:30:40.150Z,85.3
2022-11-10T05:31:55.448Z,85.4
2022-11-10T05:33:11.759Z,85.5
2022-11-10T05:34:28.043Z,85.5
2022-11-10T05:35:44.340Z,85.6
2022-11-10T05:37:00.641Z,85.5
2022-11-10T05:38:16.932Z,85.5
2022-11-10T05:39:33.212Z,85.4
2022-11-10T05:40:49.517Z,85.5
2022-11-10T05:42:05.801Z,85.6
2022-11-10T05:43:22.113Z,85.6
2022-11-10T05:44:38.399Z,85.6
2022-11-10T05:45:54.686Z,85.7
2022-11-10T05:47:10.917Z,85.6
2022-11-10T05:48:26.183Z,85.5
2022-11-10T05:49:42.425Z,85.4
2022-11-10T05:50:58.670Z,85.4
2022-11-10T05:52:14.898Z,85.5
2022-11-10T05:53:31.137Z,85.5
2022-11-10T05:54:47.375Z,85.5
2022-11-10T05:56:03.625Z,85.5
2022-11-10T05:57:19.865Z,85.5
2022-11-10T05:58:36.098Z,85.5
2022-11-10T05:59:52.333Z,85.5
2022-11-10T06:01:08.575Z,85.5
2022-11-10T06:02:24.811Z,85.6
2022-11-10T06:03:41.052Z,85.6
2022-11-10T06:04:56.321Z,85.7
2022-11-10T06:06:12.548Z,85.7
2022-11-10T06:07:28.788Z,85.7
2022-11-10T06:08:45.039Z,85.7
2022-11-10T06:10:01.274Z,85.6
2022-11-10T06:11:17.504Z,85.7
2022-11-10T06:12:33.752Z,85.7
2022-11-10T06:13:49.991Z,85.7
2022-11-10T06:15:06.229Z,85.6
2022-11-10T06:16:22.469Z,85.7
2022-11-10T06:17:38.718Z,85.7
2022-11-10T06:18:54.940Z,85.6
2022-11-10T06:20:11.187Z,85.6
2022-11-10T06:21:26.442Z,85.6
2022-11-10T06:22:42.674Z,85.4
2022-11-10T06:23:58.923Z,85.4
2022-11-10T06:25:15.163Z,85.4
2022-11-10T06:26:31.402Z,85.3
2022-11-10T06:27:47.630Z,85.2
2022-11-10T06:29:03.888Z,85.1
2022-11-10T06:30:20.118Z,85
2022-11-10T06:31:36.363Z,84.9
2022-11-10T06:32:52.609Z,84.8
2022-11-10T06:34:08.844Z,84.7
2022-11-10T06:35:25.084Z,84.5
2022-11-10T06:36:41.319Z,84.5
2022-11-10T06:37:56.570Z,84.3
2022-11-10T06:39:12.809Z,84.3
2022-11-10T06:40:29.060Z,84.4
2022-11-10T06:41:45.283Z,84.2
2022-11-10T06:43:01.528Z,84.3
2022-11-10T06:44:17.765Z,84.3
2022-11-10T06:45:34.026Z,84.3
2022-11-10T06:46:50.240Z,84.3
2022-11-10T06:48:06.485Z,84.3
2022-11-10T06:49:22.731Z,84.3
2022-11-10T06:50:38.975Z,84.4
2022-11-10T06:51:55.216Z,84.5
2022-11-10T06:53:11.449Z,84.4
2022-11-10T06:54:26.697Z,84.4
2022-11-10T06:55:42.955Z,84.5
2022-11-10T06:56:59.189Z,84.5
2022-11-10T06:58:15.419Z,84.7
2022-11-10T06:59:31.661Z,84.8
2022-11-10T07:00:47.895Z,84.8
2022-11-10T07:02:04.143Z,84.8
2022-11-10T07:03:20.380Z,85
2022-11-10T07:04:36.620Z,85
2022-11-10T07:05:52.855Z,85
2022-11-10T07:07:09.093Z,85.1
2022-11-10T07:08:25.332Z,85
2022-11-10T07:09:41.569Z,85
2022-11-10T07:10:56.830Z,85
2022-11-10T07:12:13.072Z,85
2022-11-10T07:13:29.317Z,84.8
2022-11-10T07:14:45.559Z,84.8
2022-11-10T07:16:01.790Z,84.7
2022-11-10T07:17:18.024Z,84.8
2022-11-10T07:18:34.268Z,84.8
2022-11-10T07:19:50.514Z,84.7
2022-11-10T07:21:06.758Z,84.7
2022-11-10T07:22:22.988Z,84.7
2022-11-10T07:23:39.233Z,84.5
2022-11-10T07:24:55.467Z,84.7
2022-11-10T07:26:11.713Z,84.4
2022-11-10T07:27:26.974Z,84.4
2022-11-10T07:28:43.197Z,84.3
2022-11-10T07:29:59.446Z,84.4
2022-11-10T07:31:15.692Z,84.4
2022-11-10T07:32:31.919Z,84.4
2022-11-10T07:33:48.169Z,84.3
2022-11-10T07:35:04.406Z,84.2
2022-11-10T07:36:20.647Z,84.2
2022-11-10T07:37:36.877Z,84.2
2022-11-10T07:38:53.111Z,84.2
2022-11-10T07:40:09.372Z,84
2022-11-10T07:41:25.590Z,84
2022-11-10T07:42:41.835Z,84
2022-11-10T07:43:57.105Z,83.9
2022-11-10T07:45:13.341Z,84
2022-11-10T07:46:29.576Z,84
2022-11-10T07:47:45.806Z,83.9
2022-11-10T07:49:02.062Z,83.8
2022-11-10T07:50:18.297Z,83.9
2022-11-10T07:51:34.523Z,83.8
2022-11-10T07:52:50.771Z,83.6
2022-11-10T07:54:07.016Z,83.4
2022-11-10T07:55:23.261Z,83.5
2022-11-10T07:56:39.499Z,83.4
2022-11-10T07:57:55.722Z,83.3
2022-11-10T07:59:11.975Z,83.1
2022-11-10T08:00:27.236Z,83.2
2022-11-10T08:01:43.468Z,83.2
2022-11-10T08:02:59.710Z,83.1
2022-11-10T08:04:15.943Z,83.1
2022-11-10T08:05:32.175Z,82.9
2022-11-10T08:06:48.417Z,82.8
2022-11-10T08:08:04.670Z,82.7
2022-11-10T08:09:20.915Z,82.7
2022-11-10T08:10:37.136Z,82.6
2022-11-10T08:11:53.386Z,82.6
2022-11-10T08:13:09.622Z,82.4
2022-11-10T08:14:25.857Z,82.3
2022-11-10T08:15:42.099Z,82.3
2022-11-10T08:16:58.340Z,82.1
2022-11-10T08:18:14.576Z,81.8
2022-11-10T08:19:30.815Z,81.6
2022-11-10T08:20:47.064Z,81.5
2022-11-10T08:22:03.297Z,81.5
2022-11-10T08:23:19.532Z,81.4
2022-11-10T08:24:35.783Z,81.3
2022-11-10T08:25:52.023Z,81.2
2022-11-10T08:27:08.248Z,81
2022-11-10T08:28:24.492Z,81
2022-11-10T08:29:39.752Z,80.6
2022-11-10T08:30:55.994Z,80.5
2022-11-10T08:32:12.233Z,80.3
2022-11-10T08:33:28.468Z,79.8
2022-11-10T08:34:44.711Z,79.8
2022-11-10T08:36:00.946Z,79.8
2022-11-10T08:37:17.192Z,79.7
2022-11-10T08:38:33.425Z,79.9
2022-11-10T08:39:49.662Z,79.6
2022-11-10T08:41:05.916Z,79.6
2022-11-10T08:42:22.141Z,79.5
2022-11-10T08:43:38.389Z,79.1
2022-11-10T08:44:54.626Z,78.8
2022-11-10T08:46:09.878Z,78.8
2022-11-10T08:47:26.121Z,78.9
2022-11-10T08:48:42.355Z,78.9
2022-11-10T08:49:58.616Z,78.6
2022-11-10T08:51:14.840Z,78.6
2022-11-10T08:52:31.074Z,78.6
2022-11-10T08:55:03.554Z,78.4
2022-11-10T08:56:19.787Z,78.3
2022-11-10T08:57:36.039Z,78.3
2022-11-10T08:58:52.279Z,78.4
2022-11-10T09:00:08.518Z,78.3
2022-11-10T09:01:24.752Z,78.3
2022-11-10T09:02:40.026Z,78.2
2022-11-10T09:03:56.242Z,78.2
2022-11-10T09:05:12.489Z,78.3
2022-11-10T09:06:28.729Z,77.9
2022-11-10T09:07:44.973Z,77.7
2022-11-10T09:09:01.217Z,77.7
2022-11-10T09:10:17.450Z,77.5
2022-11-10T09:11:33.691Z,77.5
2022-11-10T09:12:49.923Z,77.5
2022-11-10T09:14:05.188Z,77
2022-11-10T09:15:21.435Z,77.2
2022-11-10T09:16:37.672Z,77
2022-11-10T09:17:53.926Z,77.1
2022-11-10T09:19:10.144Z,77.2
2022-11-10T09:20:26.390Z,77
2022-11-10T09:21:42.636Z,77
2022-11-10T09:22:58.868Z,77
2022-11-10T09:24:15.107Z,77.1
2022-11-10T09:25:31.362Z,76.7
2022-11-10T09:26:47.597Z,77.1
2022-11-10T09:28:03.835Z,76.8
2022-11-10T09:29:20.073Z,76.8
2022-11-10T09:30:35.317Z,76.7
2022-11-10T09:31:51.563Z,76.7
2022-11-10T09:33:07.802Z,76.7
2022-11-10T09:34:24.039Z,76.3
2022-11-10T09:35:40.270Z,76
2022-11-10T09:36:56.525Z,76.2
2022-11-10T09:38:12.773Z,76.4
2022-11-10T09:39:28.989Z,75.8
2022-11-10T09:40:45.251Z,75.8
2022-11-10T09:42:01.476Z,75.6
2022-11-10T09:43:17.720Z,75.3
2022-11-10T09:44:33.950Z,75.7
2022-11-10T09:45:50.206Z,75.2
2022-11-10T09:47:05.454Z,74.5
2022-11-10T09:48:21.700Z,74
2022-11-10T09:49:37.939Z,73.9
2022-11-10T09:50:54.167Z,74
2022-11-10T09:52:10.410Z,73.7
2022-11-10T09:53:26.661Z,73.5
2022-11-10T09:54:42.898Z,73.5
2022-11-10T09:55:59.140Z,73.5
2022-11-10T09:57:15.376Z,73
2022-11-10T09:58:31.605Z,72.9
2022-11-10T09:59:47.840Z,73.2
2022-11-10T10:01:04.096Z,73.5
2022-11-10T10:02:20.328Z,73.5
2022-11-10T10:03:35.582Z,73
2022-11-10T10:04:51.826Z,73.2
2022-11-10T10:06:08.060Z,73.3
2022-11-10T10:07:24.303Z,73.4
2022-11-10T10:08:40.548Z,73.4
2022-11-10T10:09:56.777Z,73.5
2022-11-10T10:11:13.015Z,73.7
2022-11-10T10:12:29.252Z,73.8
2022-11-10T10:13:45.501Z,73.7
2022-11-10T10:15:01.754Z,73.4
2022-11-10T10:16:17.977Z,73.7
2022-11-10T10:17:34.218Z,73.9
2022-11-10T10:18:50.465Z,73.5
2022-11-10T10:20:05.717Z,72.9
2022-11-10T10:21:21.961Z,72.4
2022-11-10T10:22:38.190Z,72.4
2022-11-10T10:23:54.426Z,72.5
2022-11-10T10:25:10.675Z,72.3
2022-11-10T10:26:26.913Z,72.3
2022-11-10T10:27:43.144Z,71.8
2022-11-10T10:28:59.400Z,72
2022-11-10T10:30:15.638Z,71.4
2022-11-10T10:31:31.884Z,71.2
2022-11-10T10:32:48.108Z,71.2
2022-11-10T10:34:04.348Z,71.1
2022-11-10T10:35:20.604Z,71
2022-11-10T10:36:35.847Z,70.9
2022-11-10T10:37:52.098Z,71.2
2022-11-10T10:39:08.329Z,71.5
2022-11-10T10:40:24.568Z,71.4
2022-11-10T10:41:40.798Z,71.4
2022-11-10T10:42:57.033Z,70.9
2022-11-10T10:44:13.277Z,70.7
2022-11-10T10:45:29.524Z,70.7
2022-11-10T10:46:45.765Z,70.9
2022-11-10T10:48:02.008Z,70.7
2022-11-10T10:49:18.234Z,71.1
2022-11-10T10:50:34.464Z,71.4
2022-11-10T10:51:50.728Z,70.9
2022-11-10T10:53:05.967Z,70.8
2022-11-10T10:54:22.220Z,70.7
2022-11-10T10:55:38.440Z,71.1
2022-11-10T10:56:54.686Z,70.8
2022-11-10T10:58:10.931Z,70.9
2022-11-10T10:59:27.172Z,71
2022-11-10T11:00:43.416Z,71.1
2022-11-10T11:01:59.647Z,71.2
2022-11-10T11:03:15.875Z,71
2022-11-10T11:04:32.124Z,70.8
2022-11-10T11:05:48.360Z,70.8
2022-11-10T11:07:04.608Z,71
2022-11-10T11:08:20.839Z,70.5
2022-11-10T11:09:36.106Z,70.6
2022-11-10T11:10:52.335Z,70.8
2022-11-10T11:12:08.590Z,71.2
2022-11-10T11:13:24.813Z,71.2
2022-11-10T11:14:41.064Z,70.6
2022-11-10T11:15:57.311Z,69.8
2022-11-10T11:17:13.534Z,70.5
2022-11-10T11:18:29.772Z,70.6
2022-11-10T11:19:46.026Z,70.7
2022-11-10T11:21:02.256Z,70.8
2022-11-10T11:22:18.492Z,70.7
2022-11-10T11:23:34.727Z,70.7
2022-11-10T11:24:50.964Z,69.9
2022-11-10T11:26:06.219Z,69.4
2022-11-10T11:27:22.459Z,69.6
2022-11-10T11:28:38.695Z,69
2022-11-10T11:29:54.953Z,68.5
2022-11-10T11:31:11.178Z,67.8
2022-11-10T11:32:27.429Z,68.1
2022-11-10T11:33:43.659Z,67.8
2022-11-10T11:34:59.906Z,67.3
2022-11-10T11:36:16.135Z,67.2
2022-11-10T11:37:32.390Z,67.3
2022-11-10T11:38:48.621Z,67.3
2022-11-10T11:40:04.852Z,67.6
2022-11-10T11:41:21.093Z,68.2
2022-11-10T11:42:36.361Z,68.5
2022-11-10T11:43:52.593Z,68
2022-11-10T11:45:08.836Z,67.9
2022-11-10T11:46:25.084Z,67
2022-11-10T11:47:41.304Z,66.6
2022-11-10T11:48:57.000Z,66.6
2022-11-10T11:50:13.795Z,66.7
2022-11-10T11:51:30.030Z,66.8
2022-11-10T11:52:46.255Z,66.8
2022-11-10T11:54:02.492Z,66
2022-11-10T11:55:18.741Z,65.8
2022-11-10T11:56:34.980Z,66.2
2022-11-10T11:57:51.223Z,66.3
2022-11-10T11:59:06.484Z,66.3
2022-11-10T12:00:22.730Z,66.1
2022-11-10T12:01:38.953Z,66.3
2022-11-10T12:02:55.191Z,66.5
2022-11-10T12:04:11.430Z,66.5
2022-11-10T12:05:27.665Z,66.5
2022-11-10T12:06:43.918Z,66.9
2022-11-10T12:08:00.156Z,66.8
2022-11-10T12:09:16.407Z,66.3
2022-11-10T12:10:32.618Z,66.8
2022-11-10T12:11:48.866Z,66.6
2022-11-10T12:13:05.123Z,66.9
2022-11-10T12:14:21.346Z,66.9
2022-11-10T12:15:36.619Z,67.4
2022-11-10T12:16:52.832Z,67.3
2022-11-10T12:18:09.084Z,67.6
2022-11-10T12:19:25.323Z,67.6
2022-11-10T12:20:41.574Z,67.3
2022-11-10T12:21:57.797Z,67.2
2022-11-10T12:23:14.030Z,66.8
2022-11-10T12:24:30.280Z,66.5
2022-11-10T12:25:46.518Z,66.5
2022-11-10T12:27:02.753Z,66.7
2022-11-10T12:28:18.985Z,66.5
2022-11-10T12:29:35.230Z,66.3
2022-11-10T12:30:51.467Z,66.2
2022-11-10T12:32:06.736Z,66.1
2022-11-10T12:33:22.973Z,65.9
2022-11-10T12:34:39.203Z,66.2
2022-11-10T12:35:55.451Z,66.2
2022-11-10T12:37:11.677Z,66.1
2022-11-10T12:38:27.931Z,65.7
2022-11-10T12:39:44.167Z,66
2022-11-10T12:41:00.416Z,65.6
2022-11-10T12:42:16.653Z,65.8
2022-11-10T12:43:32.904Z,65.8
2022-11-10T12:44:49.126Z,66.1
2022-11-10T12:46:05.373Z,66.2
2022-11-10T12:47:21.604Z,64.4
2022-11-10T12:48:36.880Z,64.8
2022-11-10T12:49:53.102Z,65.2
2022-11-10T12:51:09.342Z,64.5
2022-11-10T12:52:25.583Z,65
2022-11-10T12:53:41.834Z,64.6
2022-11-10T12:54:58.059Z,64.3
2022-11-10T12:56:14.304Z,64.4
2022-11-10T12:57:30.536Z,64.6
2022-11-10T12:58:46.779Z,64
2022-11-10T13:00:03.010Z,64.2
2022-11-10T13:01:19.267Z,64.1
2022-11-10T13:02:35.494Z,64.3
2022-11-10T13:03:51.749Z,64.6
2022-11-10T13:05:06.990Z,64.7
2022-11-10T13:06:23.218Z,65
2022-11-10T13:07:39.468Z,64.7
2022-11-10T13:08:55.713Z,64.4
2022-11-10T13:10:11.941Z,64.7
2022-11-10T13:11:28.193Z,64.6
2022-11-10T13:12:44.429Z,64.4
2022-11-10T13:14:00.682Z,64.3
2022-11-10T13:15:16.906Z,64.2
2022-11-10T13:16:33.160Z,64.5
2022-11-10T13:17:49.372Z,64.6
2022-11-10T13:19:05.621Z,64.9
2022-11-10T13:20:21.860Z,65
2022-11-10T13:21:37.120Z,65.2
2022-11-10T13:22:53.345Z,65.1
2022-11-10T13:24:09.599Z,65.1
2022-11-10T13:25:25.836Z,65
2022-11-10T13:26:42.078Z,65.3
2022-11-10T13:27:58.322Z,65.2
2022-11-10T13:29:13.574Z,65.4
2022-11-10T13:30:29.803Z,65.9
2022-11-10T13:31:46.042Z,65.7
2022-11-10T13:33:02.285Z,65.8
2022-11-10T13:34:18.532Z,65.7
2022-11-10T13:35:34.772Z,65.5
2022-11-10T13:36:51.031Z,65.7
2022-11-10T13:38:07.267Z,66.1
2022-11-10T13:39:23.509Z,65.9
2022-11-10T13:40:39.736Z,66.2
2022-11-10T13:41:55.970Z,66.4
2022-11-10T13:43:12.206Z,66.3
2022-11-10T13:44:28.464Z,66.2
2022-11-10T13:45:43.697Z,66.2
2022-11-10T13:46:59.955Z,66
2022-11-10T13:48:16.187Z,66
2022-11-10T13:49:32.430Z,65.8
2022-11-10T13:50:48.676Z,65.9
2022-11-10T13:52:04.910Z,65.6
2022-11-10T13:53:21.135Z,65.6
2022-11-10T13:54:37.384Z,64.9
2022-11-10T13:55:53.608Z,65.2
2022-11-10T13:57:09.856Z,64.6
2022-11-10T13:58:26.105Z,64.4
2022-11-10T13:59:42.326Z,64.7
2022-11-10T14:00:58.575Z,65.2
2022-11-10T14:02:13.836Z,65.6
2022-11-10T14:03:30.060Z,66
2022-11-10T14:04:46.328Z,66.3
2022-11-10T14:06:02.543Z,66.5
2022-11-10T14:07:18.797Z,66.7
2022-11-10T14:08:35.029Z,66.8
2022-11-10T14:09:51.266Z,67.2
2022-11-10T14:11:07.515Z,67.5
2022-11-10T14:12:23.747Z,67.6
2022-11-10T14:13:39.987Z,67.6
2022-11-10T14:14:56.214Z,67.6
2022-11-10T14:16:12.461Z,67.5
2022-11-10T14:17:28.711Z,67.6
2022-11-10T14:18:43.955Z,67.8
2022-11-10T14:20:00.203Z,67.4
2022-11-10T14:21:16.438Z,67.7
2022-11-10T14:22:32.695Z,67.9
2022-11-10T14:23:48.911Z,68.1
2022-11-10T14:25:05.156Z,68.1
2022-11-10T14:26:21.402Z,68
2022-11-10T14:27:37.626Z,68.2
2022-11-10T14:28:53.866Z,68.1
2022-11-10T14:30:10.106Z,68.4
2022-11-10T14:31:26.344Z,68.7
2022-11-10T14:32:42.584Z,68.8
2022-11-10T14:33:58.826Z,68.9
2022-11-10T14:35:14.084Z,69.2
2022-11-10T14:36:30.330Z,69
2022-11-10T14:37:46.561Z,69.3
2022-11-10T14:39:02.792Z,69.2
2022-11-10T14:40:19.033Z,69.2
2022-11-10T14:41:35.273Z,69.3
2022-11-10T14:42:51.522Z,69.5
2022-11-10T14:44:07.766Z,69.5
2022-11-10T14:45:23.990Z,69.7
2022-11-10T14:46:40.230Z,69.7
2022-11-10T14:47:56.465Z,69.9
2022-11-10T14:49:12.718Z,70.1
2022-11-10T14:50:28.945Z,70.2
2022-11-10T14:51:44.200Z,70.3
2022-11-10T14:53:00.445Z,70.5
2022-11-10T14:54:16.688Z,70.8
2022-11-10T14:55:32.935Z,70.6
2022-11-10T14:56:49.168Z,70.8
2022-11-10T14:58:05.408Z,71
2022-11-10T14:59:21.646Z,71
2022-11-10T15:00:37.892Z,71.2
2022-11-10T15:01:54.131Z,71.4
2022-11-10T15:03:10.357Z,71.3
2022-11-10T15:04:26.607Z,71.6
2022-11-10T15:05:42.842Z,71.8
2022-11-10T15:06:59.072Z,72
2022-11-10T15:08:14.331Z,72.2
2022-11-10T15:09:30.585Z,72.3
2022-11-10T15:10:46.813Z,72.5
2022-11-10T15:12:03.045Z,72.5
2022-11-10T15:13:19.301Z,72.6
2022-11-10T15:14:35.529Z,72.8
2022-11-10T15:15:51.765Z,73
2022-11-10T15:17:08.003Z,73.2
2022-11-10T15:18:24.242Z,73.3
2022-11-10T15:19:40.488Z,73.4
2022-11-10T15:20:56.738Z,73.5
2022-11-10T15:22:12.973Z,73.5
2022-11-10T15:23:29.214Z,73.6
2022-11-10T15:24:44.462Z,73.7
2022-11-10T15:26:00.708Z,73.9
2022-11-10T15:27:16.935Z,74
2022-11-10T15:28:33.179Z,74.2
2022-11-10T15:29:49.421Z,74.2
2022-11-10T15:31:05.660Z,74.4
2022-11-10T15:32:21.895Z,74.5
2022-11-10T15:33:38.144Z,74.5
2022-11-10T15:34:54.370Z,74.5
2022-11-10T15:36:10.630Z,74.7
2022-11-10T15:37:26.861Z,74.8
2022-11-10T15:38:43.101Z,74.8
2022-11-10T15:39:59.341Z,74.8
2022-11-10T15:41:14.590Z,74.8
2022-11-10T15:42:30.825Z,75
2022-11-10T15:43:47.066Z,75.1
2022-11-10T15:45:03.314Z,75.2
2022-11-10T15:46:19.545Z,75.3
2022-11-10T15:47:35.787Z,75.5
2022-11-10T15:48:52.031Z,75.6
2022-11-10T15:50:08.260Z,75.7
2022-11-10T15:51:24.509Z,75.9
2022-11-10T15:52:40.747Z,76
2022-11-10T15:53:56.980Z,76.2
2022-11-10T15:55:13.230Z,76.3
2022-11-10T15:56:29.462Z,76.6
2022-11-10T15:57:44.729Z,76.6
2022-11-10T15:59:00.954Z,76.9
2022-11-10T16:00:17.211Z,77.1
2022-11-10T16:01:33.448Z,77.2
2022-11-10T16:02:49.683Z,77.4
2022-11-10T16:04:05.927Z,77.5
2022-11-10T16:05:22.156Z,77.6
2022-11-10T16:06:38.399Z,77.7
2022-11-10T16:07:54.628Z,77.9
2022-11-10T16:09:10.869Z,78
2022-11-10T16:10:27.162Z,78.1
2022-11-10T16:11:43.455Z,78.3
2022-11-10T16:12:59.761Z,78.4
2022-11-10T16:14:15.074Z,78.6
2022-11-10T16:15:31.363Z,78.7
2022-11-10T16:16:47.653Z,78.9
2022-11-10T16:18:03.956Z,79
2022-11-10T16:19:20.249Z,79.2
2022-11-10T16:20:36.535Z,79.4
2022-11-10T16:21:52.832Z,79.5
2022-11-10T16:23:09.128Z,79.7
2022-11-10T16:24:25.410Z,79.8
2022-11-10T16:25:41.700Z,79.9
2022-11-10T16:26:57.997Z,80
2022-11-10T16:28:14.306Z,80.1
2022-11-10T16:29:30.593Z,80.2
2022-11-10T16:30:45.904Z,80.3
2022-11-10T16:32:02.188Z,80.4
2022-11-10T16:33:18.483Z,80.6
2022-11-10T16:34:34.784Z,80.8
2022-11-10T16:35:51.070Z,81
2022-11-10T16:37:07.372Z,81.1
2022-11-10T16:38:23.663Z,81.3
2022-11-10T16:39:39.962Z,81.4
2022-11-10T16:40:56.244Z,81.5
2022-11-10T16:42:12.546Z,81.7
2022-11-10T16:43:28.841Z,81.8
2022-11-10T16:44:45.125Z,81.9
2022-11-10T16:46:01.419Z,81.9
2022-11-10T16:47:16.724Z,81.9
2022-11-10T16:48:33.032Z,82
2022-11-10T16:49:49.322Z,81.9
2022-11-10T16:51:05.615Z,82.2
2022-11-10T16:52:21.900Z,82.3
2022-11-10T16:53:38.207Z,82.3
2022-11-10T16:54:54.507Z,82.3
2022-11-10T16:56:10.794Z,82.4
2022-11-10T16:57:27.082Z,82.6
2022-11-10T16:58:43.372Z,82.5
2022-11-10T16:59:59.657Z,82.5
2022-11-10T17:01:15.952Z,82.5
2022-11-10T17:02:32.000Z,82.6